sensor_id;sensor_type;location;lat;lon;timestamp;pressure;altitude;pressure_sealevel;temperature
76898;BMP180;65856;52.178;21.176;2023-09-18T00:00:14;100765.40;;;18.30
76898;BMP180;65856;52.178;21.176;2023-09-18T00:02:40;100768.60;;;18.30
76898;BMP180;65856;52.178;21.176;2023-09-18T00:05:05;100766.40;;;18.30
76898;BMP180;65856;52.178;21.176;2023-09-18T00:07:31;100759.80;;;18.30
76898;BMP180;65856;52.178;21.176;2023-09-18T00:09:57;100757.80;;;18.24
76898;BMP180;65856;52.178;21.176;2023-09-18T00:12:22;100759.60;;;18.20
76898;BMP180;65856;52.178;21.176;2023-09-18T00:14:49;100758.40;;;18.20
76898;BMP180;65856;52.178;21.176;2023-09-18T00:17:15;100754.20;;;18.20
76898;BMP180;65856;52.178;21.176;2023-09-18T00:19:43;100751.60;;;18.20
76898;BMP180;65856;52.178;21.176;2023-09-18T00:22:08;100750.20;;;18.10
76898;BMP180;65856;52.178;21.176;2023-09-18T00:24:34;100750.80;;;18.10
76898;BMP180;65856;52.178;21.176;2023-09-18T00:26:59;100751.00;;;18.00
76898;BMP180;65856;52.178;21.176;2023-09-18T00:29:25;100752.20;;;18.00
76898;BMP180;65856;52.178;21.176;2023-09-18T00:31:50;100751.00;;;17.90
76898;BMP180;65856;52.178;21.176;2023-09-18T00:34:16;100759.80;;;17.90
76898;BMP180;65856;52.178;21.176;2023-09-18T00:36:41;100758.80;;;17.80
76898;BMP180;65856;52.178;21.176;2023-09-18T00:39:07;100758.40;;;17.80
76898;BMP180;65856;52.178;21.176;2023-09-18T00:41:33;100756.20;;;17.70
76898;BMP180;65856;52.178;21.176;2023-09-18T00:43:58;100760.00;;;17.70
76898;BMP180;65856;52.178;21.176;2023-09-18T00:46:25;100760.20;;;17.70
76898;BMP180;65856;52.178;21.176;2023-09-18T00:48:53;100760.00;;;17.64
76898;BMP180;65856;52.178;21.176;2023-09-18T00:51:18;100760.60;;;17.60
76898;BMP180;65856;52.178;21.176;2023-09-18T00:53:46;100761.00;;;17.60
76898;BMP180;65856;52.178;21.176;2023-09-18T00:56:14;100756.20;;;17.60
76898;BMP180;65856;52.178;21.176;2023-09-18T00:58:40;100760.00;;;17.56
76898;BMP180;65856;52.178;21.176;2023-09-18T01:01:05;100759.40;;;17.50
76898;BMP180;65856;52.178;21.176;2023-09-18T01:03:31;100754.60;;;17.44
76898;BMP180;65856;52.178;21.176;2023-09-18T01:05:57;100755.20;;;17.40
76898;BMP180;65856;52.178;21.176;2023-09-18T01:08:23;100748.40;;;17.32
76898;BMP180;65856;52.178;21.176;2023-09-18T01:11:12;100753.60;;;17.30
76898;BMP180;65856;52.178;21.176;2023-09-18T01:14:11;100754.80;;;17.20
76898;BMP180;65856;52.178;21.176;2023-09-18T01:16:56;100757.20;;;17.20
76898;BMP180;65856;52.178;21.176;2023-09-18T01:19:45;100763.80;;;17.20
76898;BMP180;65856;52.178;21.176;2023-09-18T01:22:17;100760.40;;;17.20
76898;BMP180;65856;52.178;21.176;2023-09-18T01:24:45;100757.60;;;17.20
76898;BMP180;65856;52.178;21.176;2023-09-18T01:27:17;100755.00;;;17.10
76898;BMP180;65856;52.178;21.176;2023-09-18T01:29:47;100752.60;;;17.10
76898;BMP180;65856;52.178;21.176;2023-09-18T01:32:14;100752.40;;;17.10
76898;BMP180;65856;52.178;21.176;2023-09-18T01:34:48;100754.00;;;17.02
76898;BMP180;65856;52.178;21.176;2023-09-18T01:37:21;100758.40;;;17.00
76898;BMP180;65856;52.178;21.176;2023-09-18T01:39:51;100759.80;;;17.00
76898;BMP180;65856;52.178;21.176;2023-09-18T01:42:18;100756.20;;;17.00
76898;BMP180;65856;52.178;21.176;2023-09-18T01:44:47;100752.60;;;16.98
76898;BMP180;65856;52.178;21.176;2023-09-18T01:47:17;100753.60;;;16.90
76898;BMP180;65856;52.178;21.176;2023-09-18T01:49:44;100752.40;;;16.90
76898;BMP180;65856;52.178;21.176;2023-09-18T01:52:10;100749.20;;;16.80
76898;BMP180;65856;52.178;21.176;2023-09-18T01:54:36;100754.60;;;16.80
76898;BMP180;65856;52.178;21.176;2023-09-18T01:57:03;100751.60;;;16.80
76898;BMP180;65856;52.178;21.176;2023-09-18T01:59:29;100751.40;;;16.80
76898;BMP180;65856;52.178;21.176;2023-09-18T02:01:54;100745.20;;;16.82
76898;BMP180;65856;52.178;21.176;2023-09-18T02:04:21;100740.40;;;16.80
76898;BMP180;65856;52.178;21.176;2023-09-18T02:06:49;100745.00;;;16.70
76898;BMP180;65856;52.178;21.176;2023-09-18T02:09:16;100744.40;;;16.70
76898;BMP180;65856;52.178;21.176;2023-09-18T02:11:44;100742.40;;;16.70
76898;BMP180;65856;52.178;21.176;2023-09-18T02:14:11;100736.60;;;16.70
76898;BMP180;65856;52.178;21.176;2023-09-18T02:16:40;100733.60;;;16.70
76898;BMP180;65856;52.178;21.176;2023-09-18T02:19:11;100738.40;;;16.70
76898;BMP180;65856;52.178;21.176;2023-09-18T02:21:38;100734.80;;;16.62
76898;BMP180;65856;52.178;21.176;2023-09-18T02:24:04;100734.40;;;16.60
76898;BMP180;65856;52.178;21.176;2023-09-18T02:26:30;100732.60;;;16.60
76898;BMP180;65856;52.178;21.176;2023-09-18T02:29:00;100727.00;;;16.60
76898;BMP180;65856;52.178;21.176;2023-09-18T02:31:27;100723.40;;;16.60
76898;BMP180;65856;52.178;21.176;2023-09-18T02:33:53;100721.80;;;16.60
76898;BMP180;65856;52.178;21.176;2023-09-18T02:36:19;100727.00;;;16.60
76898;BMP180;65856;52.178;21.176;2023-09-18T02:38:44;100726.60;;;16.60
76898;BMP180;65856;52.178;21.176;2023-09-18T02:41:10;100730.40;;;16.60
76898;BMP180;65856;52.178;21.176;2023-09-18T02:43:36;100729.20;;;16.70
76898;BMP180;65856;52.178;21.176;2023-09-18T02:46:05;100726.00;;;16.70
76898;BMP180;65856;52.178;21.176;2023-09-18T02:48:32;100721.80;;;16.70
76898;BMP180;65856;52.178;21.176;2023-09-18T02:50:59;100719.60;;;16.70
76898;BMP180;65856;52.178;21.176;2023-09-18T02:53:26;100724.20;;;16.76
76898;BMP180;65856;52.178;21.176;2023-09-18T02:55:53;100718.60;;;16.80
76898;BMP180;65856;52.178;21.176;2023-09-18T02:58:21;100720.80;;;16.80
76898;BMP180;65856;52.178;21.176;2023-09-18T03:00:49;100720.60;;;16.80
76898;BMP180;65856;52.178;21.176;2023-09-18T03:03:16;100716.60;;;16.86
76898;BMP180;65856;52.178;21.176;2023-09-18T03:05:43;100714.80;;;16.90
76898;BMP180;65856;52.178;21.176;2023-09-18T03:08:12;100717.60;;;16.90
76898;BMP180;65856;52.178;21.176;2023-09-18T03:10:40;100713.20;;;17.00
76898;BMP180;65856;52.178;21.176;2023-09-18T03:13:08;100716.20;;;17.00
76898;BMP180;65856;52.178;21.176;2023-09-18T03:15:36;100710.40;;;17.00
76898;BMP180;65856;52.178;21.176;2023-09-18T03:18:03;100712.00;;;17.10
76898;BMP180;65856;52.178;21.176;2023-09-18T03:20:31;100714.80;;;17.10
76898;BMP180;65856;52.178;21.176;2023-09-18T03:22:59;100715.60;;;17.10
76898;BMP180;65856;52.178;21.176;2023-09-18T03:25:26;100715.20;;;17.20
76898;BMP180;65856;52.178;21.176;2023-09-18T03:27:54;100721.20;;;17.20
76898;BMP180;65856;52.178;21.176;2023-09-18T03:30:23;100718.80;;;17.20
76898;BMP180;65856;52.178;21.176;2023-09-18T03:32:50;100717.40;;;17.30
76898;BMP180;65856;52.178;21.176;2023-09-18T03:35:17;100720.20;;;17.30
76898;BMP180;65856;52.178;21.176;2023-09-18T03:37:51;100711.60;;;17.30
76898;BMP180;65856;52.178;21.176;2023-09-18T03:40:19;100710.00;;;17.40
76898;BMP180;65856;52.178;21.176;2023-09-18T03:42:46;100713.40;;;17.40
76898;BMP180;65856;52.178;21.176;2023-09-18T03:45:12;100713.20;;;17.40
76898;BMP180;65856;52.178;21.176;2023-09-18T03:47:40;100709.20;;;17.46
76898;BMP180;65856;52.178;21.176;2023-09-18T03:50:09;100714.40;;;17.50
76898;BMP180;65856;52.178;21.176;2023-09-18T03:52:36;100715.00;;;17.50
76898;BMP180;65856;52.178;21.176;2023-09-18T03:55:02;100721.00;;;17.50
76898;BMP180;65856;52.178;21.176;2023-09-18T03:57:28;100718.00;;;17.50
76898;BMP180;65856;52.178;21.176;2023-09-18T03:59:53;100717.80;;;17.50
76898;BMP180;65856;52.178;21.176;2023-09-18T04:02:23;100720.20;;;17.58
76898;BMP180;65856;52.178;21.176;2023-09-18T04:04:50;100721.60;;;17.60
76898;BMP180;65856;52.178;21.176;2023-09-18T04:07:15;100718.20;;;17.60
76898;BMP180;65856;52.178;21.176;2023-09-18T04:09:42;100714.00;;;17.60
76898;BMP180;65856;52.178;21.176;2023-09-18T04:12:08;100711.20;;;17.60
76898;BMP180;65856;52.178;21.176;2023-09-18T04:14:35;100711.00;;;17.60
76898;BMP180;65856;52.178;21.176;2023-09-18T04:17:01;100714.20;;;17.68
76898;BMP180;65856;52.178;21.176;2023-09-18T04:19:28;100714.80;;;17.70
76898;BMP180;65856;52.178;21.176;2023-09-18T04:21:54;100712.40;;;17.70
76898;BMP180;65856;52.178;21.176;2023-09-18T04:24:19;100712.60;;;17.70
76898;BMP180;65856;52.178;21.176;2023-09-18T04:26:45;100711.40;;;17.70
76898;BMP180;65856;52.178;21.176;2023-09-18T04:29:10;100710.20;;;17.70
76898;BMP180;65856;52.178;21.176;2023-09-18T04:31:36;100707.40;;;17.70
76898;BMP180;65856;52.178;21.176;2023-09-18T04:34:03;100704.60;;;17.72
76898;BMP180;65856;52.178;21.176;2023-09-18T04:36:29;100697.60;;;17.80
76898;BMP180;65856;52.178;21.176;2023-09-18T04:38:55;100695.60;;;17.80
76898;BMP180;65856;52.178;21.176;2023-09-18T04:41:20;100687.40;;;17.80
76898;BMP180;65856;52.178;21.176;2023-09-18T04:43:46;100690.80;;;17.80
76898;BMP180;65856;52.178;21.176;2023-09-18T04:46:11;100691.80;;;17.80
76898;BMP180;65856;52.178;21.176;2023-09-18T04:48:37;100697.60;;;17.80
76898;BMP180;65856;52.178;21.176;2023-09-18T04:51:03;100694.80;;;17.80
76898;BMP180;65856;52.178;21.176;2023-09-18T04:53:30;100691.20;;;17.80
76898;BMP180;65856;52.178;21.176;2023-09-18T04:55:57;100692.40;;;17.88
76898;BMP180;65856;52.178;21.176;2023-09-18T04:58:22;100691.60;;;17.90
76898;BMP180;65856;52.178;21.176;2023-09-18T05:00:59;100687.20;;;17.90
76898;BMP180;65856;52.178;21.176;2023-09-18T05:03:28;100685.60;;;17.90
76898;BMP180;65856;52.178;21.176;2023-09-18T05:05:54;100683.20;;;17.90
76898;BMP180;65856;52.178;21.176;2023-09-18T05:08:20;100683.00;;;17.90
76898;BMP180;65856;52.178;21.176;2023-09-18T05:10:45;100678.60;;;17.90
76898;BMP180;65856;52.178;21.176;2023-09-18T05:13:11;100674.60;;;17.90
76898;BMP180;65856;52.178;21.176;2023-09-18T05:15:37;100676.20;;;17.90
76898;BMP180;65856;52.178;21.176;2023-09-18T05:18:03;100677.00;;;17.90
76898;BMP180;65856;52.178;21.176;2023-09-18T05:20:31;100678.00;;;17.92
76898;BMP180;65856;52.178;21.176;2023-09-18T05:22:58;100673.40;;;18.00
76898;BMP180;65856;52.178;21.176;2023-09-18T05:25:27;100675.00;;;18.00
76898;BMP180;65856;52.178;21.176;2023-09-18T05:27:56;100669.40;;;18.08
76898;BMP180;65856;52.178;21.176;2023-09-18T05:30:40;100664.80;;;18.10
76898;BMP180;65856;52.178;21.176;2023-09-18T05:33:07;100663.80;;;18.10
76898;BMP180;65856;52.178;21.176;2023-09-18T05:35:44;100661.20;;;18.10
76898;BMP180;65856;52.178;21.176;2023-09-18T05:38:13;100657.00;;;18.20
76898;BMP180;65856;52.178;21.176;2023-09-18T05:40:40;100654.00;;;18.20
76898;BMP180;65856;52.178;21.176;2023-09-18T05:43:06;100655.00;;;18.20
76898;BMP180;65856;52.178;21.176;2023-09-18T05:45:32;100654.20;;;18.30
76898;BMP180;65856;52.178;21.176;2023-09-18T05:47:59;100649.60;;;18.30
76898;BMP180;65856;52.178;21.176;2023-09-18T05:50:33;100645.60;;;18.38
76898;BMP180;65856;52.178;21.176;2023-09-18T05:53:01;100650.20;;;18.40
76898;BMP180;65856;52.178;21.176;2023-09-18T05:55:33;100652.80;;;18.48
76898;BMP180;65856;52.178;21.176;2023-09-18T05:58:00;100652.20;;;18.50
76898;BMP180;65856;52.178;21.176;2023-09-18T06:00:26;100649.40;;;18.56
76898;BMP180;65856;52.178;21.176;2023-09-18T06:02:52;100648.40;;;18.60
76898;BMP180;65856;52.178;21.176;2023-09-18T06:05:18;100642.60;;;18.68
76898;BMP180;65856;52.178;21.176;2023-09-18T06:07:48;100648.20;;;18.70
76898;BMP180;65856;52.178;21.176;2023-09-18T06:10:14;100645.40;;;18.80
76898;BMP180;65856;52.178;21.176;2023-09-18T06:12:40;100642.00;;;18.80
76898;BMP180;65856;52.178;21.176;2023-09-18T06:15:09;100644.00;;;18.90
76898;BMP180;65856;52.178;21.176;2023-09-18T06:17:39;100641.20;;;18.94
76898;BMP180;65856;52.178;21.176;2023-09-18T06:20:08;100645.00;;;19.00
76898;BMP180;65856;52.178;21.176;2023-09-18T06:22:39;100643.00;;;19.10
76898;BMP180;65856;52.178;21.176;2023-09-18T06:25:06;100644.20;;;19.20
76898;BMP180;65856;52.178;21.176;2023-09-18T06:27:37;100645.00;;;19.30
76898;BMP180;65856;52.178;21.176;2023-09-18T06:30:04;100638.20;;;19.30
76898;BMP180;65856;52.178;21.176;2023-09-18T06:32:30;100640.00;;;19.38
76898;BMP180;65856;52.178;21.176;2023-09-18T06:34:56;100638.80;;;19.40
76898;BMP180;65856;52.178;21.176;2023-09-18T06:37:23;100631.60;;;19.40
76898;BMP180;65856;52.178;21.176;2023-09-18T06:39:49;100638.40;;;19.50
76898;BMP180;65856;52.178;21.176;2023-09-18T06:42:15;100642.20;;;19.60
76898;BMP180;65856;52.178;21.176;2023-09-18T06:44:40;100640.20;;;19.70
76898;BMP180;65856;52.178;21.176;2023-09-18T06:47:06;100640.60;;;19.84
76898;BMP180;65856;52.178;21.176;2023-09-18T06:49:32;100638.60;;;20.00
76898;BMP180;65856;52.178;21.176;2023-09-18T06:51:57;100635.80;;;20.10
76898;BMP180;65856;52.178;21.176;2023-09-18T06:54:23;100631.60;;;20.30
76898;BMP180;65856;52.178;21.176;2023-09-18T06:56:49;100632.40;;;20.50
76898;BMP180;65856;52.178;21.176;2023-09-18T06:59:15;100629.40;;;20.78
76898;BMP180;65856;52.178;21.176;2023-09-18T07:01:41;100631.00;;;21.00
76898;BMP180;65856;52.178;21.176;2023-09-18T07:04:07;100630.00;;;21.20
76898;BMP180;65856;52.178;21.176;2023-09-18T07:06:32;100631.60;;;21.38
76898;BMP180;65856;52.178;21.176;2023-09-18T07:08:58;100633.00;;;21.60
76898;BMP180;65856;52.178;21.176;2023-09-18T07:11:24;100636.20;;;21.88
76898;BMP180;65856;52.178;21.176;2023-09-18T07:13:50;100635.20;;;22.10
76898;BMP180;65856;52.178;21.176;2023-09-18T07:16:15;100636.40;;;22.40
76898;BMP180;65856;52.178;21.176;2023-09-18T07:18:41;100634.20;;;22.70
76898;BMP180;65856;52.178;21.176;2023-09-18T07:21:07;100631.40;;;23.00
76898;BMP180;65856;52.178;21.176;2023-09-18T07:23:33;100631.80;;;23.24
76898;BMP180;65856;52.178;21.176;2023-09-18T07:26:02;100636.20;;;23.52
76898;BMP180;65856;52.178;21.176;2023-09-18T07:28:28;100639.20;;;23.82
76898;BMP180;65856;52.178;21.176;2023-09-18T07:30:53;100635.60;;;24.10
76898;BMP180;65856;52.178;21.176;2023-09-18T07:33:19;100641.40;;;24.30
76898;BMP180;65856;52.178;21.176;2023-09-18T07:35:50;100640.40;;;24.60
76898;BMP180;65856;52.178;21.176;2023-09-18T07:38:18;100634.40;;;24.90
76898;BMP180;65856;52.178;21.176;2023-09-18T07:40:47;100637.80;;;25.16
76898;BMP180;65856;52.178;21.176;2023-09-18T07:43:13;100632.80;;;25.40
76898;BMP180;65856;52.178;21.176;2023-09-18T07:45:39;100630.40;;;25.60
76898;BMP180;65856;52.178;21.176;2023-09-18T07:48:08;100639.00;;;25.70
76898;BMP180;65856;52.178;21.176;2023-09-18T07:50:36;100639.60;;;25.90
76898;BMP180;65856;52.178;21.176;2023-09-18T07:53:02;100639.00;;;26.12
76898;BMP180;65856;52.178;21.176;2023-09-18T07:55:28;100645.80;;;26.30
76898;BMP180;65856;52.178;21.176;2023-09-18T07:57:55;100644.00;;;26.40
76898;BMP180;65856;52.178;21.176;2023-09-18T08:00:21;100640.20;;;26.58
76898;BMP180;65856;52.178;21.176;2023-09-18T08:02:49;100637.40;;;26.78
76898;BMP180;65856;52.178;21.176;2023-09-18T08:05:16;100640.00;;;27.00
76898;BMP180;65856;52.178;21.176;2023-09-18T08:07:42;100638.60;;;27.20
76898;BMP180;65856;52.178;21.176;2023-09-18T08:10:08;100636.40;;;27.40
76898;BMP180;65856;52.178;21.176;2023-09-18T08:12:35;100634.60;;;27.50
76898;BMP180;65856;52.178;21.176;2023-09-18T08:15:01;100632.80;;;27.60
76898;BMP180;65856;52.178;21.176;2023-09-18T08:17:26;100628.40;;;27.60
76898;BMP180;65856;52.178;21.176;2023-09-18T08:19:53;100621.60;;;27.70
76898;BMP180;65856;52.178;21.176;2023-09-18T08:22:19;100626.00;;;27.80
76898;BMP180;65856;52.178;21.176;2023-09-18T08:24:49;100622.20;;;27.80
76898;BMP180;65856;52.178;21.176;2023-09-18T08:27:18;100614.80;;;27.90
76898;BMP180;65856;52.178;21.176;2023-09-18T08:29:47;100610.00;;;27.90
76898;BMP180;65856;52.178;21.176;2023-09-18T08:32:12;100607.80;;;27.92
76898;BMP180;65856;52.178;21.176;2023-09-18T08:34:38;100611.00;;;28.10
76898;BMP180;65856;52.178;21.176;2023-09-18T08:37:04;100613.80;;;28.20
76898;BMP180;65856;52.178;21.176;2023-09-18T08:39:30;100619.00;;;28.28
76898;BMP180;65856;52.178;21.176;2023-09-18T08:42:03;100616.80;;;28.30
76898;BMP180;65856;52.178;21.176;2023-09-18T08:44:30;100614.00;;;28.40
76898;BMP180;65856;52.178;21.176;2023-09-18T08:46:56;100610.00;;;28.42
76898;BMP180;65856;52.178;21.176;2023-09-18T08:49:23;100609.00;;;28.40
76898;BMP180;65856;52.178;21.176;2023-09-18T08:51:55;100607.40;;;28.38
76898;BMP180;65856;52.178;21.176;2023-09-18T08:54:22;100604.40;;;28.30
76898;BMP180;65856;52.178;21.176;2023-09-18T08:56:51;100607.40;;;28.30
76898;BMP180;65856;52.178;21.176;2023-09-18T08:59:21;100604.40;;;28.30
76898;BMP180;65856;52.178;21.176;2023-09-18T09:01:47;100597.60;;;28.30
76898;BMP180;65856;52.178;21.176;2023-09-18T09:04:13;100598.20;;;28.36
76898;BMP180;65856;52.178;21.176;2023-09-18T09:06:40;100595.00;;;28.30
76898;BMP180;65856;52.178;21.176;2023-09-18T09:09:05;100592.20;;;28.30
76898;BMP180;65856;52.178;21.176;2023-09-18T09:11:31;100594.80;;;28.28
76898;BMP180;65856;52.178;21.176;2023-09-18T09:14:13;100585.80;;;28.20
76898;BMP180;65856;52.178;21.176;2023-09-18T09:16:49;100592.00;;;28.20
76898;BMP180;65856;52.178;21.176;2023-09-18T09:19:28;100589.40;;;28.20
76898;BMP180;65856;52.178;21.176;2023-09-18T09:21:55;100588.20;;;28.20
76898;BMP180;65856;52.178;21.176;2023-09-18T09:24:39;100595.60;;;28.18
76898;BMP180;65856;52.178;21.176;2023-09-18T09:27:06;100594.00;;;28.12
76898;BMP180;65856;52.178;21.176;2023-09-18T09:29:33;100589.40;;;28.10
76898;BMP180;65856;52.178;21.176;2023-09-18T09:32:32;100582.60;;;28.10
76898;BMP180;65856;52.178;21.176;2023-09-18T09:34:58;100584.80;;;28.16
76898;BMP180;65856;52.178;21.176;2023-09-18T09:37:31;100580.40;;;28.10
76898;BMP180;65856;52.178;21.176;2023-09-18T09:40:04;100578.00;;;28.10
76898;BMP180;65856;52.178;21.176;2023-09-18T09:42:40;100577.00;;;28.02
76898;BMP180;65856;52.178;21.176;2023-09-18T09:45:12;100571.60;;;28.00
76898;BMP180;65856;52.178;21.176;2023-09-18T09:47:40;100565.60;;;28.00
76898;BMP180;65856;52.178;21.176;2023-09-18T09:50:08;100564.00;;;27.90
76898;BMP180;65856;52.178;21.176;2023-09-18T09:52:50;100560.20;;;27.88
76898;BMP180;65856;52.178;21.176;2023-09-18T09:55:30;100562.80;;;27.90
76898;BMP180;65856;52.178;21.176;2023-09-18T09:58:01;100563.20;;;27.80
76898;BMP180;65856;52.178;21.176;2023-09-18T10:00:34;100556.80;;;27.70
76898;BMP180;65856;52.178;21.176;2023-09-18T10:03:10;100559.80;;;27.68
76898;BMP180;65856;52.178;21.176;2023-09-18T10:05:40;100551.60;;;27.60
76898;BMP180;65856;52.178;21.176;2023-09-18T10:08:25;100548.00;;;27.60
76898;BMP180;65856;52.178;21.176;2023-09-18T10:10:54;100544.60;;;27.60
76898;BMP180;65856;52.178;21.176;2023-09-18T10:13:31;100543.20;;;27.60
76898;BMP180;65856;52.178;21.176;2023-09-18T10:15:59;100536.20;;;27.60
76898;BMP180;65856;52.178;21.176;2023-09-18T10:24:24;100528.20;;;27.60
76898;BMP180;65856;52.178;21.176;2023-09-18T10:27:02;100528.40;;;27.50
76898;BMP180;65856;52.178;21.176;2023-09-18T10:29:30;100524.60;;;27.50
76898;BMP180;65856;52.178;21.176;2023-09-18T10:31:56;100526.60;;;27.50
76898;BMP180;65856;52.178;21.176;2023-09-18T10:34:24;100520.60;;;27.50
76898;BMP180;65856;52.178;21.176;2023-09-18T10:36:53;100521.60;;;27.50
76898;BMP180;65856;52.178;21.176;2023-09-18T10:39:20;100522.40;;;27.50
76898;BMP180;65856;52.178;21.176;2023-09-18T10:41:54;100523.40;;;27.50
76898;BMP180;65856;52.178;21.176;2023-09-18T10:44:22;100511.80;;;27.56
76898;BMP180;65856;52.178;21.176;2023-09-18T10:46:50;100513.40;;;27.60
76898;BMP180;65856;52.178;21.176;2023-09-18T10:49:20;100507.60;;;27.60
76898;BMP180;65856;52.178;21.176;2023-09-18T10:51:47;100508.80;;;27.60
76898;BMP180;65856;52.178;21.176;2023-09-18T10:54:24;100501.80;;;27.70
76898;BMP180;65856;52.178;21.176;2023-09-18T10:56:51;100500.20;;;27.62
76898;BMP180;65856;52.178;21.176;2023-09-18T10:59:17;100491.20;;;27.66
76898;BMP180;65856;52.178;21.176;2023-09-18T11:01:44;100489.80;;;27.70
76898;BMP180;65856;52.178;21.176;2023-09-18T11:04:10;100495.60;;;27.70
76898;BMP180;65856;52.178;21.176;2023-09-18T11:09:27;100488.20;;;27.60
76898;BMP180;65856;52.178;21.176;2023-09-18T11:12:03;100491.00;;;27.60
76898;BMP180;65856;52.178;21.176;2023-09-18T11:14:57;100489.60;;;27.60
76898;BMP180;65856;52.178;21.176;2023-09-18T11:17:40;100479.60;;;27.54
76898;BMP180;65856;52.178;21.176;2023-09-18T11:23:16;100478.80;;;27.50
76898;BMP180;65856;52.178;21.176;2023-09-18T11:25:44;100473.80;;;27.56
76898;BMP180;65856;52.178;21.176;2023-09-18T11:28:16;100472.00;;;27.60
76898;BMP180;65856;52.178;21.176;2023-09-18T11:30:54;100466.20;;;27.50
76898;BMP180;65856;52.178;21.176;2023-09-18T11:33:41;100464.80;;;27.36
76898;BMP180;65856;52.178;21.176;2023-09-18T11:36:29;100466.60;;;27.40
76898;BMP180;65856;52.178;21.176;2023-09-18T11:39:00;100478.40;;;27.40
76898;BMP180;65856;52.178;21.176;2023-09-18T11:41:34;100472.80;;;27.30
76898;BMP180;65856;52.178;21.176;2023-09-18T11:46:32;100466.80;;;27.20
76898;BMP180;65856;52.178;21.176;2023-09-18T11:48:59;100468.60;;;27.30
76898;BMP180;65856;52.178;21.176;2023-09-18T11:51:26;100465.00;;;27.30
76898;BMP180;65856;52.178;21.176;2023-09-18T11:53:55;100465.00;;;27.30
76898;BMP180;65856;52.178;21.176;2023-09-18T11:56:21;100465.00;;;27.30
76898;BMP180;65856;52.178;21.176;2023-09-18T11:58:48;100464.40;;;27.20
76898;BMP180;65856;52.178;21.176;2023-09-18T12:01:18;100469.20;;;27.12
76898;BMP180;65856;52.178;21.176;2023-09-18T12:03:44;100459.80;;;27.10
76898;BMP180;65856;52.178;21.176;2023-09-18T12:06:11;100456.00;;;27.02
76898;BMP180;65856;52.178;21.176;2023-09-18T12:08:41;100457.80;;;27.00
76898;BMP180;65856;52.178;21.176;2023-09-18T12:11:07;100450.00;;;27.00
76898;BMP180;65856;52.178;21.176;2023-09-18T12:13:33;100449.00;;;27.00
76898;BMP180;65856;52.178;21.176;2023-09-18T12:16:04;100448.00;;;27.00
76898;BMP180;65856;52.178;21.176;2023-09-18T12:18:35;100434.20;;;27.08
76898;BMP180;65856;52.178;21.176;2023-09-18T12:21:06;100435.60;;;27.10
76898;BMP180;65856;52.178;21.176;2023-09-18T12:23:37;100436.00;;;27.10
76898;BMP180;65856;52.178;21.176;2023-09-18T12:26:04;100436.60;;;27.18
76898;BMP180;65856;52.178;21.176;2023-09-18T12:28:34;100433.40;;;27.20
76898;BMP180;65856;52.178;21.176;2023-09-18T12:31:01;100427.80;;;27.22
76898;BMP180;65856;52.178;21.176;2023-09-18T12:33:34;100431.60;;;27.30
76898;BMP180;65856;52.178;21.176;2023-09-18T12:36:03;100424.40;;;27.30
76898;BMP180;65856;52.178;21.176;2023-09-18T12:38:30;100423.20;;;27.30
76898;BMP180;65856;52.178;21.176;2023-09-18T12:40:56;100414.00;;;27.30
76898;BMP180;65856;52.178;21.176;2023-09-18T12:43:28;100411.80;;;27.30
76898;BMP180;65856;52.178;21.176;2023-09-18T12:45:56;100414.40;;;27.24
76898;BMP180;65856;52.178;21.176;2023-09-18T12:48:22;100408.60;;;27.20
76898;BMP180;65856;52.178;21.176;2023-09-18T12:50:52;100410.00;;;27.20
76898;BMP180;65856;52.178;21.176;2023-09-18T12:53:22;100409.20;;;27.20
76898;BMP180;65856;52.178;21.176;2023-09-18T12:55:49;100407.80;;;27.30
76898;BMP180;65856;52.178;21.176;2023-09-18T12:58:19;100406.60;;;27.30
76898;BMP180;65856;52.178;21.176;2023-09-18T13:00:48;100398.40;;;27.30
76898;BMP180;65856;52.178;21.176;2023-09-18T13:03:15;100396.20;;;27.30
76898;BMP180;65856;52.178;21.176;2023-09-18T13:05:41;100395.00;;;27.30
76898;BMP180;65856;52.178;21.176;2023-09-18T13:08:07;100386.40;;;27.34
76898;BMP180;65856;52.178;21.176;2023-09-18T13:10:48;100387.40;;;27.30
76898;BMP180;65856;52.178;21.176;2023-09-18T13:13:19;100374.80;;;27.30
76898;BMP180;65856;52.178;21.176;2023-09-18T13:15:47;100374.00;;;27.30
76898;BMP180;65856;52.178;21.176;2023-09-18T13:18:15;100373.20;;;27.38
76898;BMP180;65856;52.178;21.176;2023-09-18T13:20:42;100371.60;;;27.40
76898;BMP180;65856;52.178;21.176;2023-09-18T13:23:09;100368.20;;;27.40
76898;BMP180;65856;52.178;21.176;2023-09-18T13:25:37;100361.80;;;27.40
76898;BMP180;65856;52.178;21.176;2023-09-18T13:28:10;100353.40;;;27.40
76898;BMP180;65856;52.178;21.176;2023-09-18T13:30:37;100350.60;;;27.40
76898;BMP180;65856;52.178;21.176;2023-09-18T13:33:12;100352.00;;;27.40
76898;BMP180;65856;52.178;21.176;2023-09-18T13:35:42;100347.40;;;27.40
76898;BMP180;65856;52.178;21.176;2023-09-18T13:38:09;100344.80;;;27.40
76898;BMP180;65856;52.178;21.176;2023-09-18T13:40:41;100343.80;;;27.40
76898;BMP180;65856;52.178;21.176;2023-09-18T13:43:11;100347.00;;;27.40
76898;BMP180;65856;52.178;21.176;2023-09-18T13:45:37;100341.40;;;27.40
76898;BMP180;65856;52.178;21.176;2023-09-18T13:48:04;100340.00;;;27.40
76898;BMP180;65856;52.178;21.176;2023-09-18T13:50:32;100333.80;;;27.40
76898;BMP180;65856;52.178;21.176;2023-09-18T13:52:58;100326.00;;;27.40
76898;BMP180;65856;52.178;21.176;2023-09-18T13:55:25;100323.40;;;27.32
76898;BMP180;65856;52.178;21.176;2023-09-18T13:57:50;100319.20;;;27.30
76898;BMP180;65856;52.178;21.176;2023-09-18T14:00:16;100311.20;;;27.30
76898;BMP180;65856;52.178;21.176;2023-09-18T14:02:42;100308.60;;;27.30
76898;BMP180;65856;52.178;21.176;2023-09-18T14:05:09;100301.80;;;27.30